Terminal Aerodrome Forecast
Issued by NWS Knoxville/Tri Cities, TN

Home | Current Version | Previous Version | Text Only | Print | Product List | Glossary On
Versions: 1 2 3 4 5 6 7 8 9 10 11 12 13 14 15 16 17 18 19 20 21 22 23 24 25 26 27 28
000
FTUS44 KMRX 292325
TAFTRI
TAF
KTRI 292325Z 3000/3024 23007KT P6SM SCT060 BKN120
     FM300200 26008KT P6SM BKN040
     FM300400 28010KT 4SM -RASN OVC025
     FM301200 29012G18KT P6SM BKN035
     FM301800 29014G21KT P6SM SCT035 BKN070=

USA.gov is the U.S. government's official web portal to all federal, state and local government web resources and services.